sensor_id;sensor_type;location;lat;lon;timestamp;pressure;altitude;pressure_sealevel;temperature;humidity
14253;BME280;7210;51.502;10.722;2023-01-29T00:00:18;101044.47;;;-4.07;100.00
14253;BME280;7210;51.502;10.722;2023-01-29T00:02:46;101036.75;;;-4.07;100.00
14253;BME280;7210;51.502;10.722;2023-01-29T00:05:14;101037.66;;;-4.08;100.00
14253;BME280;7210;51.502;10.722;2023-01-29T00:07:41;101035.84;;;-4.06;100.00
14253;BME280;7210;51.502;10.722;2023-01-29T00:10:11;101030.47;;;-4.03;100.00
14253;BME280;7210;51.502;10.722;2023-01-29T00:12:41;101033.97;;;-4.04;100.00
14253;BME280;7210;51.502;10.722;2023-01-29T00:15:08;101025.69;;;-4.09;100.00
14253;BME280;7210;51.502;10.722;2023-01-29T00:17:37;101018.16;;;-4.12;100.00
14253;BME280;7210;51.502;10.722;2023-01-29T00:20:08;101017.44;;;-4.14;100.00
14253;BME280;7210;51.502;10.722;2023-01-29T00:22:36;101014.09;;;-4.16;100.00
14253;BME280;7210;51.502;10.722;2023-01-29T00:25:04;101008.53;;;-4.22;100.00
14253;BME280;7210;51.502;10.722;2023-01-29T00:27:37;101011.19;;;-4.24;100.00
14253;BME280;7210;51.502;10.722;2023-01-29T00:30:09;101005.41;;;-4.27;100.00
14253;BME280;7210;51.502;10.722;2023-01-29T00:32:43;100997.94;;;-4.32;100.00
14253;BME280;7210;51.502;10.722;2023-01-29T00:35:11;100994.84;;;-4.37;100.00
14253;BME280;7210;51.502;10.722;2023-01-29T00:37:38;100993.19;;;-4.38;100.00
14253;BME280;7210;51.502;10.722;2023-01-29T00:40:08;100989.25;;;-4.43;100.00
14253;BME280;7210;51.502;10.722;2023-01-29T00:42:35;100984.00;;;-4.42;100.00
14253;BME280;7210;51.502;10.722;2023-01-29T00:45:20;100978.75;;;-4.40;100.00
14253;BME280;7210;51.502;10.722;2023-01-29T00:47:49;100978.75;;;-4.40;100.00
14253;BME280;7210;51.502;10.722;2023-01-29T00:50:17;100974.22;;;-4.37;100.00
14253;BME280;7210;51.502;10.722;2023-01-29T00:52:44;100976.97;;;-4.40;100.00
14253;BME280;7210;51.502;10.722;2023-01-29T00:55:13;100973.75;;;-4.43;100.00
14253;BME280;7210;51.502;10.722;2023-01-29T00:57:41;100971.31;;;-4.45;100.00
14253;BME280;7210;51.502;10.722;2023-01-29T01:00:16;100967.03;;;-4.46;100.00
14253;BME280;7210;51.502;10.722;2023-01-29T01:02:44;100969.63;;;-4.46;100.00
14253;BME280;7210;51.502;10.722;2023-01-29T01:05:38;100960.44;;;-4.50;100.00
14253;BME280;7210;51.502;10.722;2023-01-29T01:08:12;100966.53;;;-4.51;100.00
14253;BME280;7210;51.502;10.722;2023-01-29T01:11:11;100967.47;;;-4.52;100.00
14253;BME280;7210;51.502;10.722;2023-01-29T01:13:51;100946.38;;;-4.58;100.00
14253;BME280;7210;51.502;10.722;2023-01-29T01:16:18;100948.13;;;-4.59;100.00
14253;BME280;7210;51.502;10.722;2023-01-29T01:18:46;100950.88;;;-4.62;100.00
14253;BME280;7210;51.502;10.722;2023-01-29T01:21:16;100951.81;;;-4.63;100.00
14253;BME280;7210;51.502;10.722;2023-01-29T01:23:47;100947.19;;;-4.58;100.00
14253;BME280;7210;51.502;10.722;2023-01-29T01:26:16;100948.78;;;-4.55;100.00
14253;BME280;7210;51.502;10.722;2023-01-29T01:28:44;100953.09;;;-4.56;100.00
14253;BME280;7210;51.502;10.722;2023-01-29T01:31:13;100962.19;;;-4.50;100.00
14253;BME280;7210;51.502;10.722;2023-01-29T01:33:41;100956.94;;;-4.49;100.00
14253;BME280;7210;51.502;10.722;2023-01-29T01:36:11;100954.13;;;-4.46;100.00
14253;BME280;7210;51.502;10.722;2023-01-29T01:38:40;100956.25;;;-4.38;100.00
14253;BME280;7210;51.502;10.722;2023-01-29T01:41:13;100955.94;;;-4.34;100.00
14253;BME280;7210;51.502;10.722;2023-01-29T01:43:53;100959.25;;;-4.32;100.00
14253;BME280;7210;51.502;10.722;2023-01-29T01:46:21;100963.47;;;-4.31;100.00
14253;BME280;7210;51.502;10.722;2023-01-29T01:48:56;100953.16;;;-4.31;100.00
14253;BME280;7210;51.502;10.722;2023-01-29T01:51:29;100944.50;;;-4.30;100.00
14253;BME280;7210;51.502;10.722;2023-01-29T01:54:03;100942.41;;;-4.37;100.00
14253;BME280;7210;51.502;10.722;2023-01-29T01:56:39;100936.19;;;-4.47;100.00
14253;BME280;7210;51.502;10.722;2023-01-29T01:59:12;100932.28;;;-4.53;100.00
14253;BME280;7210;51.502;10.722;2023-01-29T02:01:52;100915.31;;;-4.57;100.00
14253;BME280;7210;51.502;10.722;2023-01-29T02:04:26;100913.03;;;-4.61;100.00
14253;BME280;7210;51.502;10.722;2023-01-29T02:07:14;100918.84;;;-4.58;100.00
14253;BME280;7210;51.502;10.722;2023-01-29T02:10:07;100932.66;;;-4.59;100.00
14253;BME280;7210;51.502;10.722;2023-01-29T02:12:38;100924.91;;;-4.59;100.00
14253;BME280;7210;51.502;10.722;2023-01-29T02:15:07;100919.84;;;-4.60;100.00
14253;BME280;7210;51.502;10.722;2023-01-29T02:17:41;100929.97;;;-4.57;100.00
14253;BME280;7210;51.502;10.722;2023-01-29T02:20:20;100933.72;;;-4.49;100.00
14253;BME280;7210;51.502;10.722;2023-01-29T02:23:37;100925.59;;;-4.43;100.00
14253;BME280;7210;51.502;10.722;2023-01-29T02:26:39;100907.31;;;-4.40;100.00
14253;BME280;7210;51.502;10.722;2023-01-29T02:29:22;100922.31;;;-4.32;100.00
14253;BME280;7210;51.502;10.722;2023-01-29T02:32:17;100926.31;;;-4.28;100.00
14253;BME280;7210;51.502;10.722;2023-01-29T02:34:59;100905.28;;;-4.35;100.00
14253;BME280;7210;51.502;10.722;2023-01-29T02:37:56;100916.84;;;-4.28;100.00
14253;BME280;7210;51.502;10.722;2023-01-29T02:40:32;100910.97;;;-4.30;100.00
14253;BME280;7210;51.502;10.722;2023-01-29T02:43:14;100883.38;;;-4.42;100.00
14253;BME280;7210;51.502;10.722;2023-01-29T02:45:52;100900.72;;;-4.44;100.00
14253;BME280;7210;51.502;10.722;2023-01-29T02:48:22;100896.97;;;-4.52;100.00
14253;BME280;7210;51.502;10.722;2023-01-29T02:50:58;100903.16;;;-4.55;100.00
14253;BME280;7210;51.502;10.722;2023-01-29T02:53:36;100887.88;;;-4.58;100.00
14253;BME280;7210;51.502;10.722;2023-01-29T02:56:12;100883.81;;;-4.62;100.00
14253;BME280;7210;51.502;10.722;2023-01-29T02:58:45;100882.94;;;-4.61;100.00
14253;BME280;7210;51.502;10.722;2023-01-29T03:01:20;100888.09;;;-4.61;100.00
14253;BME280;7210;51.502;10.722;2023-01-29T03:03:52;100886.41;;;-4.62;100.00
14253;BME280;7210;51.502;10.722;2023-01-29T03:06:27;100893.03;;;-4.58;100.00
14253;BME280;7210;51.502;10.722;2023-01-29T03:09:00;100875.06;;;-4.59;100.00
14253;BME280;7210;51.502;10.722;2023-01-29T03:11:38;100868.56;;;-4.65;100.00
14253;BME280;7210;51.502;10.722;2023-01-29T03:14:12;100880.00;;;-4.69;100.00
14253;BME280;7210;51.502;10.722;2023-01-29T03:16:51;100879.28;;;-4.71;100.00
14253;BME280;7210;51.502;10.722;2023-01-29T03:19:31;100887.13;;;-4.72;100.00
14253;BME280;7210;51.502;10.722;2023-01-29T03:22:08;100890.44;;;-4.70;100.00
14253;BME280;7210;51.502;10.722;2023-01-29T03:24:46;100888.28;;;-4.64;100.00
14253;BME280;7210;51.502;10.722;2023-01-29T03:27:39;100884.13;;;-4.66;100.00
14253;BME280;7210;51.502;10.722;2023-01-29T03:30:36;100865.75;;;-4.74;100.00
14253;BME280;7210;51.502;10.722;2023-01-29T03:33:46;100878.75;;;-4.76;100.00
14253;BME280;7210;51.502;10.722;2023-01-29T03:36:22;100872.13;;;-4.80;100.00
14253;BME280;7210;51.502;10.722;2023-01-29T03:38:51;100870.47;;;-4.81;100.00
14253;BME280;7210;51.502;10.722;2023-01-29T03:41:27;100859.16;;;-4.78;100.00
14253;BME280;7210;51.502;10.722;2023-01-29T03:44:15;100865.66;;;-4.73;100.00
14253;BME280;7210;51.502;10.722;2023-01-29T03:46:57;100869.69;;;-4.69;100.00
14253;BME280;7210;51.502;10.722;2023-01-29T03:49:50;100859.56;;;-4.72;100.00
14253;BME280;7210;51.502;10.722;2023-01-29T03:52:32;100861.53;;;-4.75;100.00
14253;BME280;7210;51.502;10.722;2023-01-29T03:55:12;100862.38;;;-4.75;100.00
14253;BME280;7210;51.502;10.722;2023-01-29T03:57:51;100844.50;;;-4.78;100.00
14253;BME280;7210;51.502;10.722;2023-01-29T04:00:27;100844.78;;;-4.82;100.00
14253;BME280;7210;51.502;10.722;2023-01-29T04:03:13;100840.47;;;-4.82;100.00
14253;BME280;7210;51.502;10.722;2023-01-29T04:06:02;100853.41;;;-4.69;100.00
14253;BME280;7210;51.502;10.722;2023-01-29T04:08:48;100851.78;;;-4.58;100.00
14253;BME280;7210;51.502;10.722;2023-01-29T04:11:21;100844.13;;;-4.59;100.00
14253;BME280;7210;51.502;10.722;2023-01-29T04:13:50;100865.72;;;-4.48;100.00
14253;BME280;7210;51.502;10.722;2023-01-29T04:16:30;100879.16;;;-4.43;100.00
14253;BME280;7210;51.502;10.722;2023-01-29T04:19:19;100880.59;;;-4.39;100.00
14253;BME280;7210;51.502;10.722;2023-01-29T04:22:01;100868.31;;;-4.35;100.00
14253;BME280;7210;51.502;10.722;2023-01-29T04:24:30;100858.41;;;-4.29;100.00
14253;BME280;7210;51.502;10.722;2023-01-29T04:27:14;100854.91;;;-4.28;100.00
14253;BME280;7210;51.502;10.722;2023-01-29T04:30:06;100829.50;;;-4.34;100.00
14253;BME280;7210;51.502;10.722;2023-01-29T04:32:57;100813.41;;;-4.37;100.00
14253;BME280;7210;51.502;10.722;2023-01-29T04:35:41;100828.88;;;-4.25;100.00
14253;BME280;7210;51.502;10.722;2023-01-29T04:38:26;100813.63;;;-4.28;100.00
14253;BME280;7210;51.502;10.722;2023-01-29T04:41:04;100805.16;;;-4.30;100.00
14253;BME280;7210;51.502;10.722;2023-01-29T04:43:43;100803.31;;;-4.28;100.00
14253;BME280;7210;51.502;10.722;2023-01-29T04:46:17;100785.75;;;-4.35;100.00
14253;BME280;7210;51.502;10.722;2023-01-29T04:49:05;100807.75;;;-4.17;100.00
14253;BME280;7210;51.502;10.722;2023-01-29T04:51:44;100820.81;;;-4.08;100.00
14253;BME280;7210;51.502;10.722;2023-01-29T04:54:30;100823.41;;;-3.95;100.00
14253;BME280;7210;51.502;10.722;2023-01-29T04:57:14;100816.06;;;-3.89;100.00
14253;BME280;7210;51.502;10.722;2023-01-29T04:59:56;100819.16;;;-3.84;100.00
14253;BME280;7210;51.502;10.722;2023-01-29T05:02:26;100799.94;;;-3.80;100.00
14253;BME280;7210;51.502;10.722;2023-01-29T05:04:55;100812.84;;;-3.80;100.00
14253;BME280;7210;51.502;10.722;2023-01-29T05:07:26;100804.16;;;-3.79;100.00
14253;BME280;7210;51.502;10.722;2023-01-29T05:10:03;100798.28;;;-3.81;100.00
14253;BME280;7210;51.502;10.722;2023-01-29T05:12:37;100785.09;;;-3.89;100.00
14253;BME280;7210;51.502;10.722;2023-01-29T05:15:11;100774.94;;;-3.92;100.00
14253;BME280;7210;51.502;10.722;2023-01-29T05:17:40;100764.00;;;-3.95;100.00
14253;BME280;7210;51.502;10.722;2023-01-29T05:20:11;100746.72;;;-4.06;100.00
14253;BME280;7210;51.502;10.722;2023-01-29T05:22:40;100747.50;;;-3.93;100.00
14253;BME280;7210;51.502;10.722;2023-01-29T05:25:21;100740.25;;;-3.88;100.00
14253;BME280;7210;51.502;10.722;2023-01-29T05:27:50;100738.63;;;-3.89;100.00
14253;BME280;7210;51.502;10.722;2023-01-29T05:30:29;100738.63;;;-3.89;100.00
14253;BME280;7210;51.502;10.722;2023-01-29T05:32:56;100729.22;;;-3.90;100.00
14253;BME280;7210;51.502;10.722;2023-01-29T05:35:24;100720.53;;;-3.89;100.00
14253;BME280;7210;51.502;10.722;2023-01-29T05:37:54;100699.38;;;-3.94;100.00
14253;BME280;7210;51.502;10.722;2023-01-29T05:40:25;100667.81;;;-4.10;100.00
14253;BME280;7210;51.502;10.722;2023-01-29T05:42:52;100698.66;;;-3.96;100.00
14253;BME280;7210;51.502;10.722;2023-01-29T05:45:41;100711.63;;;-3.85;100.00
14253;BME280;7210;51.502;10.722;2023-01-29T05:48:11;100718.94;;;-3.79;100.00
14253;BME280;7210;51.502;10.722;2023-01-29T05:50:41;100718.00;;;-3.78;100.00
14253;BME280;7210;51.502;10.722;2023-01-29T05:53:11;100724.13;;;-3.79;100.00
14253;BME280;7210;51.502;10.722;2023-01-29T05:55:45;100731.75;;;-3.77;100.00
14253;BME280;7210;51.502;10.722;2023-01-29T05:58:13;100743.19;;;-3.69;100.00
14253;BME280;7210;51.502;10.722;2023-01-29T06:00:41;100745.13;;;-3.60;100.00
14253;BME280;7210;51.502;10.722;2023-01-29T06:03:08;100750.06;;;-3.57;100.00
14253;BME280;7210;51.502;10.722;2023-01-29T06:05:37;100745.41;;;-3.52;100.00
14253;BME280;7210;51.502;10.722;2023-01-29T06:08:07;100749.19;;;-3.45;100.00
14253;BME280;7210;51.502;10.722;2023-01-29T06:10:34;100751.84;;;-3.34;100.00
14253;BME280;7210;51.502;10.722;2023-01-29T06:13:03;100755.75;;;-3.29;100.00
14253;BME280;7210;51.502;10.722;2023-01-29T06:15:30;100762.72;;;-3.18;100.00
14253;BME280;7210;51.502;10.722;2023-01-29T06:17:57;100763.09;;;-3.12;100.00
14253;BME280;7210;51.502;10.722;2023-01-29T06:20:24;100767.81;;;-3.06;100.00
14253;BME280;7210;51.502;10.722;2023-01-29T06:22:52;100776.88;;;-3.00;100.00
14253;BME280;7210;51.502;10.722;2023-01-29T06:25:19;100783.25;;;-2.93;100.00
14253;BME280;7210;51.502;10.722;2023-01-29T06:27:50;100777.06;;;-2.91;100.00
14253;BME280;7210;51.502;10.722;2023-01-29T06:30:22;100787.56;;;-2.81;100.00
14253;BME280;7210;51.502;10.722;2023-01-29T06:32:54;100785.56;;;-2.78;100.00
14253;BME280;7210;51.502;10.722;2023-01-29T06:35:23;100788.50;;;-2.71;100.00
14253;BME280;7210;51.502;10.722;2023-01-29T06:37:51;100785.47;;;-2.65;100.00
14253;BME280;7210;51.502;10.722;2023-01-29T06:40:18;100776.53;;;-2.61;100.00
14253;BME280;7210;51.502;10.722;2023-01-29T06:42:45;100778.91;;;-2.58;100.00
14253;BME280;7210;51.502;10.722;2023-01-29T06:45:25;100785.28;;;-2.51;100.00
14253;BME280;7210;51.502;10.722;2023-01-29T06:47:53;100808.47;;;-2.39;100.00
14253;BME280;7210;51.502;10.722;2023-01-29T06:50:20;100817.69;;;-2.13;100.00
14253;BME280;7210;51.502;10.722;2023-01-29T06:52:47;100802.28;;;-2.03;100.00
14253;BME280;7210;51.502;10.722;2023-01-29T06:55:14;100815.00;;;-1.89;100.00
14253;BME280;7210;51.502;10.722;2023-01-29T06:57:41;100821.94;;;-1.79;100.00
14253;BME280;7210;51.502;10.722;2023-01-29T07:00:13;100828.88;;;-1.68;100.00
14253;BME280;7210;51.502;10.722;2023-01-29T07:02:41;100834.28;;;-1.60;100.00
14253;BME280;7210;51.502;10.722;2023-01-29T07:05:09;100824.66;;;-1.58;100.00
14253;BME280;7210;51.502;10.722;2023-01-29T07:07:36;100818.97;;;-1.52;100.00
14253;BME280;7210;51.502;10.722;2023-01-29T07:10:04;100821.56;;;-1.41;100.00
14253;BME280;7210;51.502;10.722;2023-01-29T07:12:32;100814.22;;;-1.36;100.00
14253;BME280;7210;51.502;10.722;2023-01-29T07:15:02;100805.28;;;-1.32;100.00
14253;BME280;7210;51.502;10.722;2023-01-29T07:17:35;100796.28;;;-1.28;100.00
14253;BME280;7210;51.502;10.722;2023-01-29T07:20:06;100788.06;;;-1.33;100.00
14253;BME280;7210;51.502;10.722;2023-01-29T07:22:34;100759.75;;;-1.25;100.00
14253;BME280;7210;51.502;10.722;2023-01-29T07:25:01;100748.31;;;-1.23;100.00
14253;BME280;7210;51.502;10.722;2023-01-29T07:27:28;100746.88;;;-1.16;100.00
14253;BME280;7210;51.502;10.722;2023-01-29T07:29:55;100739.09;;;-1.16;100.00
14253;BME280;7210;51.502;10.722;2023-01-29T07:32:23;100737.31;;;-1.15;100.00
14253;BME280;7210;51.502;10.722;2023-01-29T07:34:50;100733.38;;;-1.10;100.00
14253;BME280;7210;51.502;10.722;2023-01-29T07:37:19;100706.63;;;-1.10;100.00
14253;BME280;7210;51.502;10.722;2023-01-29T07:39:47;100706.25;;;-1.06;100.00
14253;BME280;7210;51.502;10.722;2023-01-29T07:45:09;100718.34;;;-0.95;100.00
14253;BME280;7210;51.502;10.722;2023-01-29T07:47:37;100715.50;;;-0.92;100.00
14253;BME280;7210;51.502;10.722;2023-01-29T07:50:05;100712.91;;;-0.92;100.00
14253;BME280;7210;51.502;10.722;2023-01-29T07:52:33;100712.63;;;-0.89;100.00
14253;BME280;7210;51.502;10.722;2023-01-29T07:55:00;100694.47;;;-0.89;100.00
14253;BME280;7210;51.502;10.722;2023-01-29T07:57:29;100692.59;;;-0.87;100.00
14253;BME280;7210;51.502;10.722;2023-01-29T07:59:59;100694.81;;;-0.83;100.00
14253;BME280;7210;51.502;10.722;2023-01-29T08:02:28;100690.41;;;-0.82;100.00
14253;BME280;7210;51.502;10.722;2023-01-29T08:04:55;100684.16;;;-0.80;100.00
14253;BME280;7210;51.502;10.722;2023-01-29T08:07:23;100702.22;;;-0.78;100.00
14253;BME280;7210;51.502;10.722;2023-01-29T08:09:50;100700.31;;;-0.76;100.00
14253;BME280;7210;51.502;10.722;2023-01-29T08:12:17;100711.53;;;-0.76;100.00
14253;BME280;7210;51.502;10.722;2023-01-29T08:14:45;100730.25;;;-0.72;100.00
14253;BME280;7210;51.502;10.722;2023-01-29T08:17:12;100737.78;;;-0.69;100.00
14253;BME280;7210;51.502;10.722;2023-01-29T08:19:41;100733.28;;;-0.67;100.00
14253;BME280;7210;51.502;10.722;2023-01-29T08:22:11;100717.13;;;-0.71;100.00
14253;BME280;7210;51.502;10.722;2023-01-29T08:24:40;100710.44;;;-0.73;100.00
14253;BME280;7210;51.502;10.722;2023-01-29T08:27:11;100707.31;;;-0.67;100.00
14253;BME280;7210;51.502;10.722;2023-01-29T08:29:47;100700.66;;;-0.60;100.00
14253;BME280;7210;51.502;10.722;2023-01-29T08:32:15;100711.41;;;-0.44;100.00
14253;BME280;7210;51.502;10.722;2023-01-29T08:34:43;100697.16;;;-0.50;100.00
14253;BME280;7210;51.502;10.722;2023-01-29T08:37:10;100678.59;;;-0.45;100.00
14253;BME280;7210;51.502;10.722;2023-01-29T08:39:41;100675.03;;;-0.44;100.00
14253;BME280;7210;51.502;10.722;2023-01-29T08:42:08;100669.63;;;-0.41;100.00
14253;BME280;7210;51.502;10.722;2023-01-29T08:44:36;100652.13;;;-0.39;100.00
14253;BME280;7210;51.502;10.722;2023-01-29T08:47:04;100658.69;;;-0.35;100.00
14253;BME280;7210;51.502;10.722;2023-01-29T08:49:36;100648.84;;;-0.41;100.00
14253;BME280;7210;51.502;10.722;2023-01-29T08:52:09;100665.56;;;-0.25;100.00
14253;BME280;7210;51.502;10.722;2023-01-29T08:54:37;100669.16;;;-0.16;100.00
14253;BME280;7210;51.502;10.722;2023-01-29T08:57:04;100662.19;;;-0.07;100.00
14253;BME280;7210;51.502;10.722;2023-01-29T08:59:33;100628.97;;;-0.03;100.00
14253;BME280;7210;51.502;10.722;2023-01-29T09:02:01;100619.66;;;-0.06;100.00
14253;BME280;7210;51.502;10.722;2023-01-29T09:04:35;100600.66;;;-0.06;100.00
14253;BME280;7210;51.502;10.722;2023-01-29T09:07:03;100599.44;;;-0.02;100.00
14253;BME280;7210;51.502;10.722;2023-01-29T09:09:33;100596.03;;;-0.03;100.00
14253;BME280;7210;51.502;10.722;2023-01-29T09:12:04;100604.94;;;0.04;100.00
14253;BME280;7210;51.502;10.722;2023-01-29T09:14:35;100592.31;;;0.09;100.00
14253;BME280;7210;51.502;10.722;2023-01-29T09:17:02;100583.84;;;0.07;100.00
14253;BME280;7210;51.502;10.722;2023-01-29T09:19:30;100608.50;;;0.22;100.00
14253;BME280;7210;51.502;10.722;2023-01-29T09:21:59;100601.13;;;0.27;100.00
14253;BME280;7210;51.502;10.722;2023-01-29T09:24:26;100596.84;;;0.26;100.00
14253;BME280;7210;51.502;10.722;2023-01-29T09:26:58;100608.34;;;0.33;100.00
14253;BME280;7210;51.502;10.722;2023-01-29T09:29:26;100621.50;;;0.32;100.00
14253;BME280;7210;51.502;10.722;2023-01-29T09:31:54;100616.72;;;0.27;100.00
14253;BME280;7210;51.502;10.722;2023-01-29T09:34:22;100610.41;;;0.20;100.00
14253;BME280;7210;51.502;10.722;2023-01-29T09:36:50;100610.13;;;0.23;100.00
14253;BME280;7210;51.502;10.722;2023-01-29T09:39:23;100606.84;;;0.21;100.00
14253;BME280;7210;51.502;10.722;2023-01-29T09:42:00;100600.69;;;0.22;100.00
14253;BME280;7210;51.502;10.722;2023-01-29T09:44:54;100597.81;;;0.25;100.00
14253;BME280;7210;51.502;10.722;2023-01-29T09:47:27;100594.66;;;0.31;100.00
14253;BME280;7210;51.502;10.722;2023-01-29T09:50:00;100586.88;;;0.31;100.00
14253;BME280;7210;51.502;10.722;2023-01-29T09:52:34;100587.97;;;0.38;100.00
14253;BME280;7210;51.502;10.722;2023-01-29T09:55:09;100584.53;;;0.38;100.00
14253;BME280;7210;51.502;10.722;2023-01-29T09:57:46;100573.19;;;0.39;100.00
14253;BME280;7210;51.502;10.722;2023-01-29T10:00:21;100565.91;;;0.42;100.00
14253;BME280;7210;51.502;10.722;2023-01-29T10:03:25;100563.31;;;0.42;100.00
14253;BME280;7210;51.502;10.722;2023-01-29T10:06:14;100551.28;;;0.41;100.00
14253;BME280;7210;51.502;10.722;2023-01-29T10:09:46;100568.09;;;0.56;100.00
14253;BME280;7210;51.502;10.722;2023-01-29T10:12:37;100568.75;;;0.68;100.00
14253;BME280;7210;51.502;10.722;2023-01-29T10:15:33;100555.31;;;0.72;100.00
14253;BME280;7210;51.502;10.722;2023-01-29T10:21:59;100559.41;;;0.94;100.00
14253;BME280;7210;51.502;10.722;2023-01-29T10:24:40;100537.75;;;0.93;100.00
14253;BME280;7210;51.502;10.722;2023-01-29T10:27:16;100528.28;;;0.92;100.00
14253;BME280;7210;51.502;10.722;2023-01-29T10:29:48;100521.16;;;0.94;100.00
14253;BME280;7210;51.502;10.722;2023-01-29T10:32:23;100522.53;;;0.98;100.00
14253;BME280;7210;51.502;10.722;2023-01-29T10:34:55;100512.50;;;1.03;99.85
14253;BME280;7210;51.502;10.722;2023-01-29T10:37:36;100514.91;;;1.14;99.36
14253;BME280;7210;51.502;10.722;2023-01-29T10:40:19;100497.66;;;1.13;98.41
14253;BME280;7210;51.502;10.722;2023-01-29T10:42:54;100490.88;;;1.03;98.53
14253;BME280;7210;51.502;10.722;2023-01-29T10:45:51;100490.31;;;0.99;98.12
14253;BME280;7210;51.502;10.722;2023-01-29T10:48:41;100482.63;;;1.07;98.37
14253;BME280;7210;51.502;10.722;2023-01-29T10:51:32;100493.00;;;1.17;98.16
14253;BME280;7210;51.502;10.722;2023-01-29T10:54:25;100501.69;;;1.25;98.12
14253;BME280;7210;51.502;10.722;2023-01-29T10:57:07;100509.41;;;1.44;98.21
14253;BME280;7210;51.502;10.722;2023-01-29T11:00:02;100506.47;;;1.57;97.56
14253;BME280;7210;51.502;10.722;2023-01-29T11:02:33;100494.56;;;1.72;97.87
14253;BME280;7210;51.502;10.722;2023-01-29T11:05:02;100482.19;;;1.74;97.32
14253;BME280;7210;51.502;10.722;2023-01-29T11:07:29;100487.50;;;1.82;97.43
14253;BME280;7210;51.502;10.722;2023-01-29T11:10:02;100476.81;;;1.93;96.50
14253;BME280;7210;51.502;10.722;2023-01-29T11:12:34;100460.91;;;1.96;95.96
14253;BME280;7210;51.502;10.722;2023-01-29T11:15:15;100439.53;;;1.92;95.57
14253;BME280;7210;51.502;10.722;2023-01-29T11:18:03;100426.94;;;1.88;95.25
14253;BME280;7210;51.502;10.722;2023-01-29T11:20:37;100430.88;;;1.92;94.90
14253;BME280;7210;51.502;10.722;2023-01-29T11:23:05;100421.22;;;1.84;95.31
14253;BME280;7210;51.502;10.722;2023-01-29T11:25:52;100429.28;;;1.99;94.74
14253;BME280;7210;51.502;10.722;2023-01-29T11:28:39;100413.13;;;1.95;94.64
14253;BME280;7210;51.502;10.722;2023-01-29T11:31:20;100423.56;;;1.95;94.51
14253;BME280;7210;51.502;10.722;2023-01-29T11:34:02;100402.66;;;1.87;94.33
14253;BME280;7210;51.502;10.722;2023-01-29T11:36:35;100400.34;;;1.84;93.79
14253;BME280;7210;51.502;10.722;2023-01-29T11:39:16;100402.00;;;1.85;93.83
14253;BME280;7210;51.502;10.722;2023-01-29T11:41:51;100405.25;;;1.87;93.84
14253;BME280;7210;51.502;10.722;2023-01-29T11:44:32;100397.09;;;1.82;93.92
14253;BME280;7210;51.502;10.722;2023-01-29T11:47:18;100394.50;;;1.82;93.75
14253;BME280;7210;51.502;10.722;2023-01-29T11:49:52;100376.84;;;1.76;93.65
14253;BME280;7210;51.502;10.722;2023-01-29T11:52:25;100389.56;;;1.79;93.75
14253;BME280;7210;51.502;10.722;2023-01-29T11:54:57;100378.75;;;1.74;93.82
14253;BME280;7210;51.502;10.722;2023-01-29T11:57:34;100367.00;;;1.70;93.23
14253;BME280;7210;51.502;10.722;2023-01-29T12:00:04;100371.13;;;1.73;93.35
14253;BME280;7210;51.502;10.722;2023-01-29T12:02:42;100371.31;;;1.79;93.53
14253;BME280;7210;51.502;10.722;2023-01-29T12:05:16;100364.84;;;1.83;93.45
14253;BME280;7210;51.502;10.722;2023-01-29T12:07:51;100350.09;;;1.74;92.98
14253;BME280;7210;51.502;10.722;2023-01-29T12:10:33;100330.53;;;1.70;92.66
14253;BME280;7210;51.502;10.722;2023-01-29T12:13:20;100354.03;;;1.78;93.03
14253;BME280;7210;51.502;10.722;2023-01-29T12:16:22;100359.63;;;1.83;92.86
14253;BME280;7210;51.502;10.722;2023-01-29T12:18:59;100360.28;;;1.85;92.97
14253;BME280;7210;51.502;10.722;2023-01-29T12:21:35;100373.91;;;1.97;93.10
14253;BME280;7210;51.502;10.722;2023-01-29T12:24:32;100357.13;;;1.99;92.55
14253;BME280;7210;51.502;10.722;2023-01-29T12:27:26;100345.13;;;2.06;91.72
14253;BME280;7210;51.502;10.722;2023-01-29T12:30:06;100347.81;;;2.22;91.48
14253;BME280;7210;51.502;10.722;2023-01-29T12:32:47;100312.72;;;2.17;91.04
14253;BME280;7210;51.502;10.722;2023-01-29T12:35:29;100298.91;;;2.24;90.64
14253;BME280;7210;51.502;10.722;2023-01-29T12:38:05;100281.13;;;2.20;90.16
14253;BME280;7210;51.502;10.722;2023-01-29T12:40:42;100245.25;;;2.14;89.94
14253;BME280;7210;51.502;10.722;2023-01-29T12:43:24;100235.31;;;2.17;89.45
14253;BME280;7210;51.502;10.722;2023-01-29T12:46:21;100226.84;;;2.15;89.33
14253;BME280;7210;51.502;10.722;2023-01-29T12:49:14;100210.84;;;2.10;88.99
14253;BME280;7210;51.502;10.722;2023-01-29T12:51:52;100192.09;;;2.15;88.54
14253;BME280;7210;51.502;10.722;2023-01-29T12:54:32;100190.97;;;2.17;88.53
14253;BME280;7210;51.502;10.722;2023-01-29T12:57:16;100183.16;;;2.17;88.45
14253;BME280;7210;51.502;10.722;2023-01-29T12:59:52;100208.47;;;2.33;88.42
14253;BME280;7210;51.502;10.722;2023-01-29T13:02:35;100185.16;;;2.31;87.85
14253;BME280;7210;51.502;10.722;2023-01-29T13:05:18;100178.94;;;2.24;88.11
14253;BME280;7210;51.502;10.722;2023-01-29T13:07:52;100185.47;;;2.28;88.22
14253;BME280;7210;51.502;10.722;2023-01-29T13:10:28;100192.34;;;2.37;87.79
14253;BME280;7210;51.502;10.722;2023-01-29T13:13:03;100161.81;;;2.22;87.31
14253;BME280;7210;51.502;10.722;2023-01-29T13:15:38;100165.91;;;2.24;87.37
14253;BME280;7210;51.502;10.722;2023-01-29T13:18:39;100178.94;;;2.24;87.46
14253;BME280;7210;51.502;10.722;2023-01-29T13:21:14;100174.72;;;2.23;87.59
14253;BME280;7210;51.502;10.722;2023-01-29T13:23:45;100173.38;;;2.19;87.54
14253;BME280;7210;51.502;10.722;2023-01-29T13:26:18;100182.19;;;2.26;87.59
14253;BME280;7210;51.502;10.722;2023-01-29T13:28:48;100155.44;;;2.16;86.88
14253;BME280;7210;51.502;10.722;2023-01-29T13:31:28;100144.84;;;2.10;86.78
14253;BME280;7210;51.502;10.722;2023-01-29T13:34:07;100147.59;;;2.08;86.68